Pride Of Bruges — PGJW — position and weather

sailwx.info

Track history (hours):
 
Tides and Currents Weather Stations Pressure Air Temp Water Temp Dewpoint Dewpoint Depression Visibility Wind Speed Wind Dir Waves Ship Positions

Pride Of Bruges

Operator: P&O Ferries

Last reported at 2018-Feb-20 15:00 UTC. Time now 2018-Feb-20 15:30 UTC.
Position N 53°45' W 000°16'.

Length 180 m; draft 5.7 m.

Type: Ship. MMSI: 244387000.

Date/timePositionNaut miles runAvg speedWind from/ knotsBaromVisibWave heightAir tempDewpointWater temp
2018-Feb-20 15:00N 53°45' W 000°16'0 0.0
2018-Feb-20 14:29N 53°45' W 000°16'0 0.0
2018-Feb-20 13:59N 53°45' W 000°16'0 0.0
2018-Feb-20 13:29N 53°45' W 000°16'0 0.0
2018-Feb-20 12:59N 53°45' W 000°16'0 0.0
2018-Feb-20 12:29N 53°45' W 000°16'0 0.0
2018-Feb-20 11:58N 53°45' W 000°16'0 0.0
2018-Feb-20 11:28N 53°45' W 000°16'0 0.0
2018-Feb-20 10:58N 53°45' W 000°16'0 0.0
2018-Feb-20 10:28N 53°45' W 000°16'0 0.0
2018-Feb-20 10:00N 53°45' W 000°16'0 0.0
2018-Feb-20 09:30N 53°45' W 000°16'0 0.0
2018-Feb-20 09:00N 53°45' W 000°16'0 0.0
2018-Feb-20 08:30N 53°45' W 000°16'0 0.2
2018-Feb-20 08:00N 53°45' W 000°16'0 0.5
2018-Feb-20 07:30N 53°44' W 000°16'713.3
2018-Feb-20 07:00N 53°39' W 000°10'815.6
2018-Feb-20 06:30N 53°35' E 000°01'815.0
2018-Feb-20 06:00N 53°33' E 000°14'3213.8
2018-Feb-20 03:41N 53°19' E 001°01'314.6
2018-Feb-20 03:30N 53°17' E 001°04'714.8
2018-Feb-20 03:00N 53°11' E 001°12'815.9
2018-Feb-20 02:30N 53°05' E 001°21'816.7
2018-Feb-20 02:00N 52°59' E 001°31'816.4
2018-Feb-20 01:30N 52°53' E 001°40'815.6
2018-Feb-20 01:00N 52°48' E 001°49'714.8
2018-Feb-20 00:30N 52°42' E 001°57'713.9
2018-Feb-20 00:00N 52°36' E 002°03'6714.2
2018-Feb-19 19:18N 51°35' E 002°47'515.6
2018-Feb-19 19:00N 51°31' E 002°51'816.8
2018-Feb-19 18:30N 51°25' E 003°01'815.6
2018-Feb-19 18:01N 51°22' E 003°12'1 2.6
2018-Feb-19 17:30N 51°20' E 003°11'0 0.0
2018-Feb-19 16:59N 51°20' E 003°11'0 0.0
2018-Feb-19 16:29N 51°20' E 003°11'0 0.0
2018-Feb-19 15:56N 51°20' E 003°11'0 0.0
2018-Feb-19 15:29N 51°20' E 003°11'0 0.0
2018-Feb-19 14:59N 51°20' E 003°11'0 0.0
2018-Feb-19 14:19N 51°20' E 003°11'0 0.0
2018-Feb-19 13:58N 51°20' E 003°11'0 0.0
2018-Feb-19 13:28N 51°20' E 003°11'0 0.0
2018-Feb-19 13:00N 51°20' E 003°11'0 0.0
2018-Feb-19 12:30N 51°20' E 003°11'0 0.0
2018-Feb-19 12:00N 51°20' E 003°11'0 0.0
2018-Feb-19 11:30N 51°20' E 003°11'0 0.0
2018-Feb-19 11:00N 51°20' E 003°11'0 0.0
2018-Feb-19 10:29N 51°20' E 003°11'0 0.0
2018-Feb-19 09:59N 51°20' E 003°11'0 0.0
2018-Feb-19 09:26N 51°20' E 003°11'0 0.0
2018-Feb-19 08:59N 51°20' E 003°11'0 0.0
2018-Feb-19 08:23N 51°20' E 003°11'0 0.0
2018-Feb-19 07:58N 51°20' E 003°11'2 3.3
2018-Feb-19 07:30N 51°22' E 003°11'815.0
2018-Feb-19 07:00N 51°25' E 003°01'714.2
2018-Feb-19 06:30N 51°29' E 002°51'713.5
2018-Feb-19 06:00N 51°34' E 002°44'713.9
2018-Feb-19 05:31N 51°40' E 002°38'5814.9
2018-Feb-19 01:38N 52°34' E 002°04'215.7
2018-Feb-19 01:30N 52°36' E 002°03'815.9
2018-Feb-19 01:00N 52°43' E 001°56'816.4
2018-Feb-19 00:31N 52°48' E 001°46'816.7
2018-Feb-19 00:00N 52°53' E 001°35'816.9
2018-Feb-18 23:31N 52°58' E 001°23'917.6
2018-Feb-18 23:00N 53°01' E 001°10'917.6
2018-Feb-18 22:30N 53°06' E 000°58'3316.8
2018-Feb-18 20:32N 53°30' E 000°19'116.4
2018-Feb-18 20:29N 53°31' E 000°18'816.0
2018-Feb-18 20:00N 53°34' E 000°06'816.0
2018-Feb-18 19:30N 53°37' W 000°06'713.8
2018-Feb-18 19:00N 53°42' W 000°14'3 5.9
2018-Feb-18 18:30N 53°44' W 000°16'0 0.2
2018-Feb-18 18:01N 53°45' W 000°16'0 0.0
2018-Feb-18 17:30N 53°45' W 000°16'0 0.0
2018-Feb-18 17:00N 53°45' W 000°16'0 0.0
2018-Feb-18 16:30N 53°45' W 000°16'0 0.0
2018-Feb-18 16:00N 53°45' W 000°16'0 0.0
2018-Feb-18 15:30N 53°45' W 000°16'0 0.0
2018-Feb-18 15:00N 53°45' W 000°16'0 0.0
2018-Feb-18 14:30N 53°45' W 000°16'0 0.0
2018-Feb-18 14:00N 53°45' W 000°16'0 0.0
2018-Feb-18 13:31N 53°45' W 000°16'0 0.0
2018-Feb-18 13:00N 53°45' W 000°16'0 0.0
2018-Feb-18 12:30N 53°45' W 000°16'0 0.0
2018-Feb-18 12:00N 53°45' W 000°16'0 0.0
2018-Feb-18 11:30N 53°45' W 000°16'0 0.0
2018-Feb-18 11:00N 53°45' W 000°16'0 0.0
2018-Feb-18 10:30N 53°45' W 000°16'0 0.0
2018-Feb-18 10:00N 53°45' W 000°16'0 0.0
2018-Feb-18 09:30N 53°45' W 000°16'0 0.0
2018-Feb-18 09:00N 53°45' W 000°16'0 0.2
2018-Feb-18 08:31N 53°45' W 000°16'0 0.6
2018-Feb-18 08:00N 53°44' W 000°17'611.9
2018-Feb-18 07:30N 53°39' W 000°11'815.3
2018-Feb-18 07:00N 53°36' E 000°00'816.2
2018-Feb-18 06:30N 53°33' E 000°13'3313.7
2018-Feb-18 04:06N 53°18' E 001°03'114.7
2018-Feb-18 04:00N 53°17' E 001°04'715.1
2018-Feb-18 03:31N 53°11' E 001°12'714.9
2018-Feb-18 03:01N 53°06' E 001°20'815.5
2018-Feb-18 02:31N 53°00' E 001°29'816.2
2018-Feb-18 02:01N 52°54' E 001°38'816.5
2018-Feb-18 01:31N 52°48' E 001°48'815.9
2018-Feb-18 01:00N 52°42' E 001°57'815.2
2018-Feb-18 00:30N 52°36' E 002°03'714.1
2018-Feb-18 00:00N 52°30' E 002°09'913.5
2018-Feb-17 23:21N 52°22' E 002°15'512.9
2018-Feb-17 23:00N 52°18' E 002°18'612.9
2018-Feb-17 22:30N 52°12' E 002°22'2413.1
2018-Feb-17 20:40N 51°49' E 002°37'413.3
2018-Feb-17 20:24N 51°46' E 002°38'613.8
2018-Feb-17 19:58N 51°41' E 002°42'714.3
2018-Feb-17 19:30N 51°35' E 002°49'714.6
2018-Feb-17 19:00N 51°29' E 002°55'714.1
2018-Feb-17 18:30N 51°25' E 003°04'612.8
2018-Feb-17 18:00N 51°21' E 003°12'1 1.9
2018-Feb-17 17:29N 51°20' E 003°11'0 0.0
2018-Feb-17 16:59N 51°20' E 003°11'0 0.0
2018-Feb-17 16:28N 51°20' E 003°11'0 0.0
2018-Feb-17 15:58N 51°20' E 003°11'0 0.0
2018-Feb-17 15:28N 51°20' E 003°11'0 0.0
2018-Feb-17 14:58N 51°20' E 003°11'0 0.0
2018-Feb-17 14:30N 51°20' E 003°11'0 0.0
2018-Feb-17 14:00N 51°20' E 003°11'0 0.0
2018-Feb-17 13:30N 51°20' E 003°11'0 0.0
2018-Feb-17 13:00N 51°20' E 003°11'0 0.0
2018-Feb-17 12:30N 51°20' E 003°11'0 0.0
2018-Feb-17 11:59N 51°20' E 003°11'0 0.0
2018-Feb-17 11:29N 51°20' E 003°11'0 0.0
2018-Feb-17 10:59N 51°20' E 003°11'0 0.0
2018-Feb-17 10:29N 51°20' E 003°11'0 0.0
2018-Feb-17 09:58N 51°20' E 003°11'0 0.0
2018-Feb-17 09:28N 51°20' E 003°11'0 0.0
2018-Feb-17 08:58N 51°20' E 003°11'0 0.0
2018-Feb-17 08:28N 51°20' E 003°11'1 2.1
2018-Feb-17 08:00N 51°21' E 003°12'713.2
2018-Feb-17 07:30N 51°24' E 003°03'713.8
2018-Feb-17 07:00N 51°28' E 002°53'714.5
2018-Feb-17 06:31N 51°33' E 002°45'714.1
2018-Feb-17 05:59N 51°39' E 002°39'815.1
2018-Feb-17 05:28N 51°47' E 002°35'4815.0
2018-Feb-17 02:15N 52°32' E 002°07'414.4
2018-Feb-17 02:01N 52°35' E 002°05'714.2
2018-Feb-17 01:30N 52°41' E 001°59'714.3
2018-Feb-17 01:00N 52°46' E 001°50'815.2
2018-Feb-17 00:30N 52°51' E 001°40'815.1
2018-Feb-17 00:00N 52°55' E 001°30'815.2
2018-Feb-16 23:30N 52°59' E 001°19'816.1
2018-Feb-16 23:00N 53°02' E 001°07'816.0
2018-Feb-16 22:29N 53°07' E 000°56'3015.7
2018-Feb-16 20:34N 53°29' E 000°21'115.4
2018-Feb-16 20:30N 53°30' E 000°20'815.3
2018-Feb-16 20:00N 53°33' E 000°08'917.5
2018-Feb-16 19:30N 53°37' W 000°05'714.9
2018-Feb-16 19:01N 53°42' W 000°14'3 6.2
2018-Feb-16 18:30N 53°44' W 000°16'0 0.2
2018-Feb-16 18:01N 53°45' W 000°16'0 0.0
2018-Feb-16 17:31N 53°45' W 000°16'0 0.0
2018-Feb-16 17:01N 53°45' W 000°16'0 0.0
2018-Feb-16 16:31N 53°45' W 000°16'0 0.0
2018-Feb-16 16:00N 53°45' W 000°16'0 0.0
2018-Feb-16 15:30N 53°45' W 000°16'0 0.0
2018-Feb-16 15:00N 53°45' W 000°16'0 0.0
2018-Feb-16 14:31N 53°45' W 000°16'0 0.0
2018-Feb-16 14:00N 53°45' W 000°16'0 0.0
2018-Feb-16 13:30N 53°45' W 000°16'0 0.0
2018-Feb-16 13:00N 53°45' W 000°16'0 0.0
2018-Feb-16 12:30N 53°45' W 000°16'0 0.0
2018-Feb-16 12:00N 53°45' W 000°16'0 0.0
2018-Feb-16 11:30N 53°45' W 000°16'0 0.0
2018-Feb-16 11:00N 53°45' W 000°16'0 0.0
2018-Feb-16 10:30N 53°45' W 000°16'0 0.0
2018-Feb-16 10:00N 53°45' W 000°16'0 0.0
2018-Feb-16 09:30N 53°45' W 000°16'0 0.0
2018-Feb-16 09:00N 53°45' W 000°16'0 0.0
2018-Feb-16 08:30N 53°45' W 000°16'0 0.2
2018-Feb-16 07:59N 53°44' W 000°16'0 0.6
2018-Feb-16 07:30N 53°44' W 000°16'612.0
2018-Feb-16 07:00N 53°39' W 000°11'815.1
2018-Feb-16 06:30N 53°36' E 000°00'815.6
2018-Feb-16 06:00N 53°33' E 000°13'3114.7
2018-Feb-16 03:52N 53°20' E 001°01'514.4
2018-Feb-16 03:30N 53°16' E 001°06'815.0
2018-Feb-16 03:00N 53°10' E 001°14'815.6
2018-Feb-16 02:30N 53°04' E 001°22'816.2
2018-Feb-16 02:00N 52°58' E 001°31'816.7
2018-Feb-16 01:30N 52°52' E 001°41'816.8
2018-Feb-16 01:00N 52°47' E 001°52'917.9
2018-Feb-16 00:30N 52°40' E 001°60'6315.3
2018-Feb-15 20:22N 51°41' E 002°41'614.7
2018-Feb-15 19:57N 51°37' E 002°47'715.0
2018-Feb-15 19:30N 51°31' E 002°53'815.9
2018-Feb-15 19:00N 51°25' E 003°02'815.7
2018-Feb-15 18:31N 51°21' E 003°12'1 1.9
2018-Feb-15 18:00N 51°20' E 003°11'0 0.0
2018-Feb-15 17:30N 51°20' E 003°11'0 0.0
2018-Feb-15 17:00N 51°20' E 003°11'0 0.0
2018-Feb-15 16:30N 51°20' E 003°11'0 0.0
2018-Feb-15 16:00N 51°20' E 003°11'0 0.0
2018-Feb-15 15:29N 51°20' E 003°11'0 0.0
2018-Feb-15 14:59N 51°20' E 003°11'0 0.0
2018-Feb-15 14:29N 51°20' E 003°11'0 0.0
2018-Feb-15 13:56N 51°20' E 003°11'0 0.0
2018-Feb-15 13:28N 51°20' E 003°11'0 0.0
2018-Feb-15 12:58N 51°20' E 003°11'0 0.0
2018-Feb-15 12:28N 51°20' E 003°11'0 0.0
2018-Feb-15 11:58N 51°20' E 003°11'0 0.0
2018-Feb-15 11:28N 51°20' E 003°11'0 0.0
2018-Feb-15 11:00N 51°20' E 003°11'0 0.0
2018-Feb-15 10:30N 51°20' E 003°11'0 0.0
2018-Feb-15 10:00N 51°20' E 003°11'0 0.0
2018-Feb-15 09:30N 51°20' E 003°11'0 0.0
2018-Feb-15 08:59N 51°20' E 003°11'0 0.0
2018-Feb-15 08:29N 51°20' E 003°11'1 2.0
2018-Feb-15 08:00N 51°21' E 003°12'714.2
2018-Feb-15 07:30N 51°25' E 003°02'816.3
2018-Feb-15 07:00N 51°29' E 002°51'917.3
2018-Feb-15 06:30N 51°35' E 002°41'917.1
2018-Feb-15 05:59N 51°44' E 002°38'917.6
2018-Feb-15 05:28N 51°52' E 002°33'4516.4
2018-Feb-15 02:44N 52°34' E 002°05'315.3
2018-Feb-15 02:30N 52°37' E 002°02'713.9
2018-Feb-15 02:00N 52°43' E 001°56'713.9
2018-Feb-15 01:30N 52°48' E 001°48'714.8
2018-Feb-15 01:00N 52°52' E 001°38'714.6
2018-Feb-15 00:30N 52°56' E 001°28'714.9
2018-Feb-15 00:00N 52°60' E 001°17'815.5
2018-Feb-14 23:30N 53°03' E 001°05'3814.9
2018-Feb-14 20:56N 53°30' E 000°20'614.2
2018-Feb-14 20:31N 53°33' E 000°11'918.3
2018-Feb-14 20:00N 53°36' W 000°03'713.8
2018-Feb-14 19:30N 53°40' W 000°13'5 9.4
2018-Feb-14 19:00N 53°44' W 000°16'0 0.4
2018-Feb-14 18:30N 53°45' W 000°16'0 0.2
2018-Feb-14 17:59N 53°45' W 000°16'0 0.0
2018-Feb-14 17:29N 53°45' W 000°16'0 0.0
2018-Feb-14 16:59N 53°45' W 000°16'0 0.0
2018-Feb-14 16:29N 53°45' W 000°16'0 0.0
2018-Feb-14 15:58N 53°45' W 000°16'0 0.0
2018-Feb-14 15:28N 53°45' W 000°16'0 0.0
2018-Feb-14 14:58N 53°45' W 000°16'0 0.0
2018-Feb-14 14:28N 53°45' W 000°16'0 0.0
2018-Feb-14 14:01N 53°45' W 000°16'0 0.0
2018-Feb-14 13:30N 53°45' W 000°16'0 0.0
2018-Feb-14 13:00N 53°45' W 000°16'0 0.0
2018-Feb-14 12:30N 53°45' W 000°16'0 0.0
2018-Feb-14 12:00N 53°45' W 000°16'0 0.0
2018-Feb-14 11:29N 53°45' W 000°16'0 0.0
2018-Feb-14 10:59N 53°45' W 000°16'0 0.0
2018-Feb-14 10:29N 53°45' W 000°16'0 0.0
2018-Feb-14 09:59N 53°45' W 000°16'0 0.0
2018-Feb-14 09:29N 53°45' W 000°16'0 0.0
2018-Feb-14 08:58N 53°45' W 000°16'0 0.0
2018-Feb-14 08:29N 53°45' W 000°16'0 0.3
2018-Feb-14 08:00N 53°44' W 000°16'0 0.5
2018-Feb-14 07:31N 53°44' W 000°16'611.7
2018-Feb-14 07:00N 53°39' W 000°11'613.0
2018-Feb-14 06:30N 53°36' W 000°02'714.3
2018-Feb-14 06:00N 53°33' E 000°09'3314.0
2018-Feb-14 03:37N 53°19' E 001°00'214.8
2018-Feb-14 03:30N 53°18' E 001°02'815.2
2018-Feb-14 03:00N 53°12' E 001°10'815.2
2018-Feb-14 02:30N 53°07' E 001°19'816.0
2018-Feb-14 02:01N 53°01' E 001°28'917.1
2018-Feb-14 01:30N 52°54' E 001°36'917.3
2018-Feb-14 01:01N 52°48' E 001°46'816.6
2018-Feb-14 00:30N 52°42' E 001°57'6315.1
2018-Feb-13 20:20N 51°45' E 002°39'514.6
2018-Feb-13 19:59N 51°40' E 002°43'714.8
2018-Feb-13 19:30N 51°34' E 002°49'715.0
2018-Feb-13 19:00N 51°29' E 002°56'714.8
2018-Feb-13 18:31N 51°24' E 003°06'510.4
2018-Feb-13 18:01N 51°21' E 003°12'1 0.9
2018-Feb-13 17:28N 51°20' E 003°11'0 0.0
2018-Feb-13 17:00N 51°20' E 003°11'0 0.0
2018-Feb-13 16:30N 51°20' E 003°11'0 0.0
2018-Feb-13 16:00N 51°20' E 003°11'0 0.0
2018-Feb-13 15:30N 51°20' E 003°11'0 0.0
2018-Feb-13 14:59N 51°20' E 003°11'0 0.0
2018-Feb-13 14:29N 51°20' E 003°11'0 0.0
2018-Feb-13 13:59N 51°20' E 003°11'0 0.0
2018-Feb-13 13:29N 51°20' E 003°11'0 0.0
2018-Feb-13 12:59N 51°20' E 003°11'0 0.0
2018-Feb-13 12:28N 51°20' E 003°11'0 0.0
2018-Feb-13 11:58N 51°20' E 003°11'0 0.0
2018-Feb-13 11:22N 51°20' E 003°11'0 0.0
2018-Feb-13 10:58N 51°20' E 003°11'0 0.0
2018-Feb-13 10:31N 51°20' E 003°11'0 0.0
2018-Feb-13 10:00N 51°20' E 003°11'0 0.0
2018-Feb-13 09:30N 51°20' E 003°11'0 0.0
2018-Feb-13 09:00N 51°20' E 003°11'0 0.0
2018-Feb-13 08:30N 51°20' E 003°11'0 0.1
2018-Feb-13 08:00N 51°20' E 003°11'5 9.4
2018-Feb-13 07:31N 51°24' E 003°06'816.4
2018-Feb-13 07:00N 51°27' E 002°54'816.8
2018-Feb-13 06:30N 51°33' E 002°45'816.6
2018-Feb-13 06:00N 51°41' E 002°39'917.2
2018-Feb-13 05:28N 51°50' E 002°36'816.5
2018-Feb-13 04:59N 51°57' E 002°31'3916.1
2018-Feb-13 02:34N 52°32' E 002°04'115.4
2018-Feb-13 02:29N 52°33' E 002°03'715.3
2018-Feb-13 02:00N 52°40' E 001°58'714.8
2018-Feb-13 01:31N 52°46' E 001°51'815.8
2018-Feb-13 01:00N 52°50' E 001°40'714.9
2018-Feb-13 00:30N 52°57' E 001°34'815.2
2018-Feb-13 00:01N 53°02' E 001°25'815.5
2018-Feb-12 23:31N 53°08' E 001°17'815.6
2018-Feb-12 23:01N 53°14' E 001°09'815.7
2018-Feb-12 22:30N 53°20' E 000°59'2516.0
2018-Feb-12 20:57N 53°32' E 000°23'716.5
2018-Feb-12 20:30N 53°33' E 000°11'917.8
2018-Feb-12 20:00N 53°36' W 000°03'714.5
2018-Feb-12 19:30N 53°40' W 000°13'5 9.3
2018-Feb-12 19:01N 53°44' W 000°16'0 0.2
2018-Feb-12 18:30N 53°45' W 000°16'0 0.1
2018-Feb-12 18:00N 53°45' W 000°16'0 0.0
2018-Feb-12 17:27N 53°45' W 000°16'0 0.0
2018-Feb-12 17:00N 53°45' W 000°16'0 0.0
2018-Feb-12 16:29N 53°45' W 000°16'0 0.0
2018-Feb-12 15:59N 53°45' W 000°16'0 0.0
2018-Feb-12 15:29N 53°45' W 000°16'0 0.0
2018-Feb-12 14:59N 53°45' W 000°16'0 0.0
2018-Feb-12 14:29N 53°45' W 000°16'0 0.0
2018-Feb-12 13:58N 53°45' W 000°16'0 0.0
2018-Feb-12 13:28N 53°45' W 000°16'0 0.0
2018-Feb-12 12:58N 53°45' W 000°16'0 0.0
2018-Feb-12 12:28N 53°45' W 000°16'0 0.0
2018-Feb-12 12:00N 53°45' W 000°16'0 0.0
2018-Feb-12 11:30N 53°45' W 000°16'0 0.0
2018-Feb-12 11:00N 53°45' W 000°16'0 0.0
2018-Feb-12 10:30N 53°45' W 000°16'0 0.0
2018-Feb-12 10:00N 53°45' W 000°16'0 0.0
2018-Feb-12 09:29N 53°45' W 000°16'0 0.0
2018-Feb-12 08:59N 53°45' W 000°16'0 0.1
2018-Feb-12 08:30N 53°45' W 000°16'0 0.3
2018-Feb-12 08:00N 53°44' W 000°16'0 0.3
2018-Feb-12 07:30N 53°44' W 000°16'5 9.4
2018-Feb-12 07:01N 53°40' W 000°13'5 9.9
2018-Feb-12 06:30N 53°37' W 000°06'613.0
2018-Feb-12 06:00N 53°35' E 000°04'714.6
2018-Feb-12 05:30N 53°33' E 000°16'2915.4
2018-Feb-12 03:36N 53°20' E 001°00'114.3
2018-Feb-12 03:30N 53°19' E 001°02'714.9
2018-Feb-12 03:00N 53°13' E 001°10'815.0
2018-Feb-12 02:30N 53°08' E 001°18'815.6
2018-Feb-12 02:00N 53°02' E 001°27'816.2
2018-Feb-12 01:31N 52°56' E 001°36'917.2
2018-Feb-12 01:00N 52°50' E 001°45'917.6
2018-Feb-12 00:30N 52°43' E 001°56'5815.6
2018-Feb-11 20:48N 51°51' E 002°34'514.1
2018-Feb-11 20:27N 51°46' E 002°38'714.0
2018-Feb-11 19:57N 51°40' E 002°43'613.7
2018-Feb-11 19:30N 51°35' E 002°48'714.0
2018-Feb-11 19:00N 51°30' E 002°55'713.9
2018-Feb-11 18:31N 51°25' E 003°03'713.3
2018-Feb-11 18:00N 51°21' E 003°12'1 1.8
2018-Feb-11 17:29N 51°20' E 003°11'0 0.0
2018-Feb-11 16:58N 51°20' E 003°11'0 0.0
2018-Feb-11 16:28N 51°20' E 003°11'0 0.0
2018-Feb-11 15:58N 51°20' E 003°11'0 0.0
2018-Feb-11 15:28N 51°20' E 003°11'0 0.0
2018-Feb-11 14:58N 51°20' E 003°11'0 0.0
2018-Feb-11 14:30N 51°20' E 003°11'0 0.0
2018-Feb-11 14:00N 51°20' E 003°11'0 0.0
2018-Feb-11 13:30N 51°20' E 003°11'0 0.0
2018-Feb-11 13:00N 51°20' E 003°11'0 0.0
2018-Feb-11 12:29N 51°20' E 003°11'0 0.0
2018-Feb-11 11:59N 51°20' E 003°11'0 0.0
2018-Feb-11 11:29N 51°20' E 003°11'0 0.0
2018-Feb-11 10:59N 51°20' E 003°11'0 0.0
2018-Feb-11 10:29N 51°20' E 003°11'0 0.0
2018-Feb-11 09:58N 51°20' E 003°11'0 0.0
2018-Feb-11 09:29N 51°20' E 003°11'0 0.0
2018-Feb-11 08:58N 51°20' E 003°11'0 0.0
2018-Feb-11 08:30N 51°20' E 003°11'1 2.4
2018-Feb-11 08:00N 51°21' E 003°12'815.8
2018-Feb-11 07:30N 51°25' E 003°01'815.6
2018-Feb-11 07:00N 51°29' E 002°50'714.6
2018-Feb-11 06:30N 51°35' E 002°42'814.4
2018-Feb-11 05:58N 51°42' E 002°38'714.7
2018-Feb-11 05:30N 51°49' E 002°36'5115.0
2018-Feb-11 02:08N 52°35' E 002°02'214.9
2018-Feb-11 01:59N 52°37' E 002°01'714.9
2018-Feb-11 01:30N 52°43' E 001°55'815.6
2018-Feb-11 01:00N 52°48' E 001°46'816.3
2018-Feb-11 00:30N 52°53' E 001°35'816.2
2018-Feb-11 00:00N 52°57' E 001°23'816.1
2018-Feb-10 23:30N 53°01' E 001°11'4115.5
2018-Feb-10 20:50N 53°29' E 000°21'515.2
2018-Feb-10 20:30N 53°32' E 000°14'715.3
2018-Feb-10 20:00N 53°35' E 000°03'815.2
2018-Feb-10 19:30N 53°38' W 000°09'713.3
2018-Feb-10 19:00N 53°44' W 000°15'1 2.2
2018-Feb-10 18:30N 53°44' W 000°16'0 0.2
2018-Feb-10 18:00N 53°45' W 000°16'0 0.0
2018-Feb-10 17:29N 53°45' W 000°16'0 0.0
2018-Feb-10 16:59N 53°45' W 000°16'0 0.0
2018-Feb-10 16:29N 53°45' W 000°16'0 0.0
2018-Feb-10 15:59N 53°45' W 000°16'0 0.0
2018-Feb-10 15:29N 53°45' W 000°16'  
Track history (hours):
 
Tides and Currents Weather Stations Pressure Air Temp Water Temp Dewpoint Dewpoint Depression Visibility Wind Speed Wind Dir Waves Ship Positions

Pride Of Bruges

Operator: P&O Ferries

Last reported at 2018-Feb-20 15:00 UTC. Time now 2018-Feb-20 15:30 UTC.
Position N 53°45' W 000°16'.

Length 180 m; draft 5.7 m.

Type: Ship. MMSI: 244387000.

Date/timePositionNaut miles runAvg speedWind from/ knotsBaromVisibWave heightAir tempDewpointWater temp
2018-Feb-20 15:00N 53°45' W 000°16'0 0.0
2018-Feb-20 14:29N 53°45' W 000°16'0 0.0
2018-Feb-20 13:59N 53°45' W 000°16'0 0.0
2018-Feb-20 13:29N 53°45' W 000°16'0 0.0
2018-Feb-20 12:59N 53°45' W 000°16'0 0.0
2018-Feb-20 12:29N 53°45' W 000°16'0 0.0
2018-Feb-20 11:58N 53°45' W 000°16'0 0.0
2018-Feb-20 11:28N 53°45' W 000°16'0 0.0
2018-Feb-20 10:58N 53°45' W 000°16'0 0.0
2018-Feb-20 10:28N 53°45' W 000°16'0 0.0
2018-Feb-20 10:00N 53°45' W 000°16'0 0.0
2018-Feb-20 09:30N 53°45' W 000°16'0 0.0
2018-Feb-20 09:00N 53°45' W 000°16'0 0.0
2018-Feb-20 08:30N 53°45' W 000°16'0 0.2
2018-Feb-20 08:00N 53°45' W 000°16'0 0.5
2018-Feb-20 07:30N 53°44' W 000°16'713.3
2018-Feb-20 07:00N 53°39' W 000°10'815.6
2018-Feb-20 06:30N 53°35' E 000°01'815.0
2018-Feb-20 06:00N 53°33' E 000°14'3213.8
2018-Feb-20 03:41N 53°19' E 001°01'314.6
2018-Feb-20 03:30N 53°17' E 001°04'714.8
2018-Feb-20 03:00N 53°11' E 001°12'815.9
2018-Feb-20 02:30N 53°05' E 001°21'816.7
2018-Feb-20 02:00N 52°59' E 001°31'816.4
2018-Feb-20 01:30N 52°53' E 001°40'815.6
2018-Feb-20 01:00N 52°48' E 001°49'714.8
2018-Feb-20 00:30N 52°42' E 001°57'713.9
2018-Feb-20 00:00N 52°36' E 002°03'6714.2
2018-Feb-19 19:18N 51°35' E 002°47'515.6
2018-Feb-19 19:00N 51°31' E 002°51'816.8
2018-Feb-19 18:30N 51°25' E 003°01'815.6
2018-Feb-19 18:01N 51°22' E 003°12'1 2.6
2018-Feb-19 17:30N 51°20' E 003°11'0 0.0
2018-Feb-19 16:59N 51°20' E 003°11'0 0.0
2018-Feb-19 16:29N 51°20' E 003°11'0 0.0
2018-Feb-19 15:56N 51°20' E 003°11'0 0.0
2018-Feb-19 15:29N 51°20' E 003°11'0 0.0
2018-Feb-19 14:59N 51°20' E 003°11'0 0.0
2018-Feb-19 14:19N 51°20' E 003°11'0 0.0
2018-Feb-19 13:58N 51°20' E 003°11'0 0.0
2018-Feb-19 13:28N 51°20' E 003°11'0 0.0
2018-Feb-19 13:00N 51°20' E 003°11'0 0.0
2018-Feb-19 12:30N 51°20' E 003°11'0 0.0
2018-Feb-19 12:00N 51°20' E 003°11'0 0.0
2018-Feb-19 11:30N 51°20' E 003°11'0 0.0
2018-Feb-19 11:00N 51°20' E 003°11'0 0.0
2018-Feb-19 10:29N 51°20' E 003°11'0 0.0
2018-Feb-19 09:59N 51°20' E 003°11'0 0.0
2018-Feb-19 09:26N 51°20' E 003°11'0 0.0
2018-Feb-19 08:59N 51°20' E 003°11'0 0.0
2018-Feb-19 08:23N 51°20' E 003°11'0 0.0
2018-Feb-19 07:58N 51°20' E 003°11'2 3.3
2018-Feb-19 07:30N 51°22' E 003°11'815.0
2018-Feb-19 07:00N 51°25' E 003°01'714.2
2018-Feb-19 06:30N 51°29' E 002°51'713.5
2018-Feb-19 06:00N 51°34' E 002°44'713.9
2018-Feb-19 05:31N 51°40' E 002°38'5814.9
2018-Feb-19 01:38N 52°34' E 002°04'215.7
2018-Feb-19 01:30N 52°36' E 002°03'815.9
2018-Feb-19 01:00N 52°43' E 001°56'816.4
2018-Feb-19 00:31N 52°48' E 001°46'816.7
2018-Feb-19 00:00N 52°53' E 001°35'816.9
2018-Feb-18 23:31N 52°58' E 001°23'917.6
2018-Feb-18 23:00N 53°01' E 001°10'917.6
2018-Feb-18 22:30N 53°06' E 000°58'3316.8
2018-Feb-18 20:32N 53°30' E 000°19'116.4
2018-Feb-18 20:29N 53°31' E 000°18'816.0
2018-Feb-18 20:00N 53°34' E 000°06'816.0
2018-Feb-18 19:30N 53°37' W 000°06'713.8
2018-Feb-18 19:00N 53°42' W 000°14'3 5.9
2018-Feb-18 18:30N 53°44' W 000°16'0 0.2
2018-Feb-18 18:01N 53°45' W 000°16'0 0.0
2018-Feb-18 17:30N 53°45' W 000°16'0 0.0
2018-Feb-18 17:00N 53°45' W 000°16'0 0.0
2018-Feb-18 16:30N 53°45' W 000°16'0 0.0
2018-Feb-18 16:00N 53°45' W 000°16'0 0.0
2018-Feb-18 15:30N 53°45' W 000°16'0 0.0
2018-Feb-18 15:00N 53°45' W 000°16'0 0.0
2018-Feb-18 14:30N 53°45' W 000°16'0 0.0
2018-Feb-18 14:00N 53°45' W 000°16'0 0.0
2018-Feb-18 13:31N 53°45' W 000°16'0 0.0
2018-Feb-18 13:00N 53°45' W 000°16'0 0.0
2018-Feb-18 12:30N 53°45' W 000°16'0 0.0
2018-Feb-18 12:00N 53°45' W 000°16'0 0.0
2018-Feb-18 11:30N 53°45' W 000°16'0 0.0
2018-Feb-18 11:00N 53°45' W 000°16'0 0.0
2018-Feb-18 10:30N 53°45' W 000°16'0 0.0
2018-Feb-18 10:00N 53°45' W 000°16'0 0.0
2018-Feb-18 09:30N 53°45' W 000°16'0 0.0
2018-Feb-18 09:00N 53°45' W 000°16'0 0.2
2018-Feb-18 08:31N 53°45' W 000°16'0 0.6
2018-Feb-18 08:00N 53°44' W 000°17'611.9
2018-Feb-18 07:30N 53°39' W 000°11'815.3
2018-Feb-18 07:00N 53°36' E 000°00'816.2
2018-Feb-18 06:30N 53°33' E 000°13'3313.7
2018-Feb-18 04:06N 53°18' E 001°03'114.7
2018-Feb-18 04:00N 53°17' E 001°04'715.1
2018-Feb-18 03:31N 53°11' E 001°12'714.9
2018-Feb-18 03:01N 53°06' E 001°20'815.5
2018-Feb-18 02:31N 53°00' E 001°29'816.2
2018-Feb-18 02:01N 52°54' E 001°38'816.5
2018-Feb-18 01:31N 52°48' E 001°48'815.9
2018-Feb-18 01:00N 52°42' E 001°57'815.2
2018-Feb-18 00:30N 52°36' E 002°03'714.1
2018-Feb-18 00:00N 52°30' E 002°09'913.5
2018-Feb-17 23:21N 52°22' E 002°15'512.9
2018-Feb-17 23:00N 52°18' E 002°18'612.9
2018-Feb-17 22:30N 52°12' E 002°22'2413.1
2018-Feb-17 20:40N 51°49' E 002°37'413.3
2018-Feb-17 20:24N 51°46' E 002°38'613.8
2018-Feb-17 19:58N 51°41' E 002°42'714.3
2018-Feb-17 19:30N 51°35' E 002°49'714.6
2018-Feb-17 19:00N 51°29' E 002°55'714.1
2018-Feb-17 18:30N 51°25' E 003°04'612.8
2018-Feb-17 18:00N 51°21' E 003°12'1 1.9
2018-Feb-17 17:29N 51°20' E 003°11'0 0.0
2018-Feb-17 16:59N 51°20' E 003°11'0 0.0
2018-Feb-17 16:28N 51°20' E 003°11'0 0.0
2018-Feb-17 15:58N 51°20' E 003°11'0 0.0
2018-Feb-17 15:28N 51°20' E 003°11'0 0.0
2018-Feb-17 14:58N 51°20' E 003°11'0 0.0
2018-Feb-17 14:30N 51°20' E 003°11'0 0.0
2018-Feb-17 14:00N 51°20' E 003°11'0 0.0
2018-Feb-17 13:30N 51°20' E 003°11'0 0.0
2018-Feb-17 13:00N 51°20' E 003°11'0 0.0
2018-Feb-17 12:30N 51°20' E 003°11'0 0.0
2018-Feb-17 11:59N 51°20' E 003°11'0 0.0
2018-Feb-17 11:29N 51°20' E 003°11'0 0.0
2018-Feb-17 10:59N 51°20' E 003°11'0 0.0
2018-Feb-17 10:29N 51°20' E 003°11'0 0.0
2018-Feb-17 09:58N 51°20' E 003°11'0 0.0
2018-Feb-17 09:28N 51°20' E 003°11'0 0.0
2018-Feb-17 08:58N 51°20' E 003°11'0 0.0
2018-Feb-17 08:28N 51°20' E 003°11'1 2.1
2018-Feb-17 08:00N 51°21' E 003°12'713.2
2018-Feb-17 07:30N 51°24' E 003°03'713.8
2018-Feb-17 07:00N 51°28' E 002°53'714.5
2018-Feb-17 06:31N 51°33' E 002°45'714.1
2018-Feb-17 05:59N 51°39' E 002°39'815.1
2018-Feb-17 05:28N 51°47' E 002°35'4815.0
2018-Feb-17 02:15N 52°32' E 002°07'414.4
2018-Feb-17 02:01N 52°35' E 002°05'714.2
2018-Feb-17 01:30N 52°41' E 001°59'714.3
2018-Feb-17 01:00N 52°46' E 001°50'815.2
2018-Feb-17 00:30N 52°51' E 001°40'815.1
2018-Feb-17 00:00N 52°55' E 001°30'815.2
2018-Feb-16 23:30N 52°59' E 001°19'816.1
2018-Feb-16 23:00N 53°02' E 001°07'816.0
2018-Feb-16 22:29N 53°07' E 000°56'3015.7
2018-Feb-16 20:34N 53°29' E 000°21'115.4
2018-Feb-16 20:30N 53°30' E 000°20'815.3
2018-Feb-16 20:00N 53°33' E 000°08'917.5
2018-Feb-16 19:30N 53°37' W 000°05'714.9
2018-Feb-16 19:01N 53°42' W 000°14'3 6.2
2018-Feb-16 18:30N 53°44' W 000°16'0 0.2
2018-Feb-16 18:01N 53°45' W 000°16'0 0.0
2018-Feb-16 17:31N 53°45' W 000°16'0 0.0
2018-Feb-16 17:01N 53°45' W 000°16'0 0.0
2018-Feb-16 16:31N 53°45' W 000°16'0 0.0
2018-Feb-16 16:00N 53°45' W 000°16'0 0.0
2018-Feb-16 15:30N 53°45' W 000°16'0 0.0
2018-Feb-16 15:00N 53°45' W 000°16'0 0.0
2018-Feb-16 14:31N 53°45' W 000°16'0 0.0
2018-Feb-16 14:00N 53°45' W 000°16'0 0.0
2018-Feb-16 13:30N 53°45' W 000°16'0 0.0
2018-Feb-16 13:00N 53°45' W 000°16'0 0.0
2018-Feb-16 12:30N 53°45' W 000°16'0 0.0
2018-Feb-16 12:00N 53°45' W 000°16'0 0.0
2018-Feb-16 11:30N 53°45' W 000°16'0 0.0
2018-Feb-16 11:00N 53°45' W 000°16'0 0.0
2018-Feb-16 10:30N 53°45' W 000°16'0 0.0
2018-Feb-16 10:00N 53°45' W 000°16'0 0.0
2018-Feb-16 09:30N 53°45' W 000°16'0 0.0
2018-Feb-16 09:00N 53°45' W 000°16'0 0.0
2018-Feb-16 08:30N 53°45' W 000°16'0 0.2
2018-Feb-16 07:59N 53°44' W 000°16'0 0.6
2018-Feb-16 07:30N 53°44' W 000°16'612.0
2018-Feb-16 07:00N 53°39' W 000°11'815.1
2018-Feb-16 06:30N 53°36' E 000°00'815.6
2018-Feb-16 06:00N 53°33' E 000°13'3114.7
2018-Feb-16 03:52N 53°20' E 001°01'514.4
2018-Feb-16 03:30N 53°16' E 001°06'815.0
2018-Feb-16 03:00N 53°10' E 001°14'815.6
2018-Feb-16 02:30N 53°04' E 001°22'816.2
2018-Feb-16 02:00N 52°58' E 001°31'816.7
2018-Feb-16 01:30N 52°52' E 001°41'816.8
2018-Feb-16 01:00N 52°47' E 001°52'917.9
2018-Feb-16 00:30N 52°40' E 001°60'6315.3
2018-Feb-15 20:22N 51°41' E 002°41'614.7
2018-Feb-15 19:57N 51°37' E 002°47'715.0
2018-Feb-15 19:30N 51°31' E 002°53'815.9
2018-Feb-15 19:00N 51°25' E 003°02'815.7
2018-Feb-15 18:31N 51°21' E 003°12'1 1.9
2018-Feb-15 18:00N 51°20' E 003°11'0 0.0
2018-Feb-15 17:30N 51°20' E 003°11'0 0.0
2018-Feb-15 17:00N 51°20' E 003°11'0 0.0
2018-Feb-15 16:30N 51°20' E 003°11'0 0.0
2018-Feb-15 16:00N 51°20' E 003°11'0 0.0
2018-Feb-15 15:29N 51°20' E 003°11'0 0.0
2018-Feb-15 14:59N 51°20' E 003°11'0 0.0
2018-Feb-15 14:29N 51°20' E 003°11'0 0.0
2018-Feb-15 13:56N 51°20' E 003°11'0 0.0
2018-Feb-15 13:28N 51°20' E 003°11'0 0.0
2018-Feb-15 12:58N 51°20' E 003°11'0 0.0
2018-Feb-15 12:28N 51°20' E 003°11'0 0.0
2018-Feb-15 11:58N 51°20' E 003°11'0 0.0
2018-Feb-15 11:28N 51°20' E 003°11'0 0.0
2018-Feb-15 11:00N 51°20' E 003°11'0 0.0
2018-Feb-15 10:30N 51°20' E 003°11'0 0.0
2018-Feb-15 10:00N 51°20' E 003°11'0 0.0
2018-Feb-15 09:30N 51°20' E 003°11'0 0.0
2018-Feb-15 08:59N 51°20' E 003°11'0 0.0
2018-Feb-15 08:29N 51°20' E 003°11'1 2.0
2018-Feb-15 08:00N 51°21' E 003°12'714.2
2018-Feb-15 07:30N 51°25' E 003°02'816.3
2018-Feb-15 07:00N 51°29' E 002°51'917.3
2018-Feb-15 06:30N 51°35' E 002°41'917.1
2018-Feb-15 05:59N 51°44' E 002°38'917.6
2018-Feb-15 05:28N 51°52' E 002°33'4516.4
2018-Feb-15 02:44N 52°34' E 002°05'315.3
2018-Feb-15 02:30N 52°37' E 002°02'713.9
2018-Feb-15 02:00N 52°43' E 001°56'713.9
2018-Feb-15 01:30N 52°48' E 001°48'714.8
2018-Feb-15 01:00N 52°52' E 001°38'714.6
2018-Feb-15 00:30N 52°56' E 001°28'714.9
2018-Feb-15 00:00N 52°60' E 001°17'815.5
2018-Feb-14 23:30N 53°03' E 001°05'3814.9
2018-Feb-14 20:56N 53°30' E 000°20'614.2
2018-Feb-14 20:31N 53°33' E 000°11'918.3
2018-Feb-14 20:00N 53°36' W 000°03'713.8
2018-Feb-14 19:30N 53°40' W 000°13'5 9.4
2018-Feb-14 19:00N 53°44' W 000°16'0 0.4
2018-Feb-14 18:30N 53°45' W 000°16'0 0.2
2018-Feb-14 17:59N 53°45' W 000°16'0 0.0
2018-Feb-14 17:29N 53°45' W 000°16'0 0.0
2018-Feb-14 16:59N 53°45' W 000°16'0 0.0
2018-Feb-14 16:29N 53°45' W 000°16'0 0.0
2018-Feb-14 15:58N 53°45' W 000°16'0 0.0
2018-Feb-14 15:28N 53°45' W 000°16'0 0.0
2018-Feb-14 14:58N 53°45' W 000°16'0 0.0
2018-Feb-14 14:28N 53°45' W 000°16'0 0.0
2018-Feb-14 14:01N 53°45' W 000°16'0 0.0
2018-Feb-14 13:30N 53°45' W 000°16'0 0.0
2018-Feb-14 13:00N 53°45' W 000°16'0 0.0
2018-Feb-14 12:30N 53°45' W 000°16'0 0.0
2018-Feb-14 12:00N 53°45' W 000°16'0 0.0
2018-Feb-14 11:29N 53°45' W 000°16'0 0.0
2018-Feb-14 10:59N 53°45' W 000°16'0 0.0
2018-Feb-14 10:29N 53°45' W 000°16'0 0.0
2018-Feb-14 09:59N 53°45' W 000°16'0 0.0
2018-Feb-14 09:29N 53°45' W 000°16'0 0.0
2018-Feb-14 08:58N 53°45' W 000°16'0 0.0
2018-Feb-14 08:29N 53°45' W 000°16'0 0.3
2018-Feb-14 08:00N 53°44' W 000°16'0 0.5
2018-Feb-14 07:31N 53°44' W 000°16'611.7
2018-Feb-14 07:00N 53°39' W 000°11'613.0
2018-Feb-14 06:30N 53°36' W 000°02'714.3
2018-Feb-14 06:00N 53°33' E 000°09'3314.0
2018-Feb-14 03:37N 53°19' E 001°00'214.8
2018-Feb-14 03:30N 53°18' E 001°02'815.2
2018-Feb-14 03:00N 53°12' E 001°10'815.2
2018-Feb-14 02:30N 53°07' E 001°19'816.0
2018-Feb-14 02:01N 53°01' E 001°28'917.1
2018-Feb-14 01:30N 52°54' E 001°36'917.3
2018-Feb-14 01:01N 52°48' E 001°46'816.6
2018-Feb-14 00:30N 52°42' E 001°57'6315.1
2018-Feb-13 20:20N 51°45' E 002°39'514.6
2018-Feb-13 19:59N 51°40' E 002°43'714.8
2018-Feb-13 19:30N 51°34' E 002°49'715.0
2018-Feb-13 19:00N 51°29' E 002°56'714.8
2018-Feb-13 18:31N 51°24' E 003°06'510.4
2018-Feb-13 18:01N 51°21' E 003°12'1 0.9
2018-Feb-13 17:28N 51°20' E 003°11'0 0.0
2018-Feb-13 17:00N 51°20' E 003°11'0 0.0
2018-Feb-13 16:30N 51°20' E 003°11'0 0.0
2018-Feb-13 16:00N 51°20' E 003°11'0 0.0
2018-Feb-13 15:30N 51°20' E 003°11'0 0.0
2018-Feb-13 14:59N 51°20' E 003°11'0 0.0
2018-Feb-13 14:29N 51°20' E 003°11'0 0.0
2018-Feb-13 13:59N 51°20' E 003°11'0 0.0
2018-Feb-13 13:29N 51°20' E 003°11'0 0.0
2018-Feb-13 12:59N 51°20' E 003°11'0 0.0
2018-Feb-13 12:28N 51°20' E 003°11'0 0.0
2018-Feb-13 11:58N 51°20' E 003°11'0 0.0
2018-Feb-13 11:22N 51°20' E 003°11'0 0.0
2018-Feb-13 10:58N 51°20' E 003°11'0 0.0
2018-Feb-13 10:31N 51°20' E 003°11'0 0.0
2018-Feb-13 10:00N 51°20' E 003°11'0 0.0
2018-Feb-13 09:30N 51°20' E 003°11'0 0.0
2018-Feb-13 09:00N 51°20' E 003°11'0 0.0
2018-Feb-13 08:30N 51°20' E 003°11'0 0.1
2018-Feb-13 08:00N 51°20' E 003°11'5 9.4
2018-Feb-13 07:31N 51°24' E 003°06'816.4
2018-Feb-13 07:00N 51°27' E 002°54'816.8
2018-Feb-13 06:30N 51°33' E 002°45'816.6
2018-Feb-13 06:00N 51°41' E 002°39'917.2
2018-Feb-13 05:28N 51°50' E 002°36'816.5
2018-Feb-13 04:59N 51°57' E 002°31'3916.1
2018-Feb-13 02:34N 52°32' E 002°04'115.4
2018-Feb-13 02:29N 52°33' E 002°03'715.3
2018-Feb-13 02:00N 52°40' E 001°58'714.8
2018-Feb-13 01:31N 52°46' E 001°51'815.8
2018-Feb-13 01:00N 52°50' E 001°40'714.9
2018-Feb-13 00:30N 52°57' E 001°34'815.2
2018-Feb-13 00:01N 53°02' E 001°25'815.5
2018-Feb-12 23:31N 53°08' E 001°17'815.6
2018-Feb-12 23:01N 53°14' E 001°09'815.7
2018-Feb-12 22:30N 53°20' E 000°59'2516.0
2018-Feb-12 20:57N 53°32' E 000°23'716.5
2018-Feb-12 20:30N 53°33' E 000°11'917.8
2018-Feb-12 20:00N 53°36' W 000°03'714.5
2018-Feb-12 19:30N 53°40' W 000°13'5 9.3
2018-Feb-12 19:01N 53°44' W 000°16'0 0.2
2018-Feb-12 18:30N 53°45' W 000°16'0 0.1
2018-Feb-12 18:00N 53°45' W 000°16'0 0.0
2018-Feb-12 17:27N 53°45' W 000°16'0 0.0
2018-Feb-12 17:00N 53°45' W 000°16'0 0.0
2018-Feb-12 16:29N 53°45' W 000°16'0 0.0
2018-Feb-12 15:59N 53°45' W 000°16'0 0.0
2018-Feb-12 15:29N 53°45' W 000°16'0 0.0
2018-Feb-12 14:59N 53°45' W 000°16'0 0.0
2018-Feb-12 14:29N 53°45' W 000°16'0 0.0
2018-Feb-12 13:58N 53°45' W 000°16'0 0.0
2018-Feb-12 13:28N 53°45' W 000°16'0 0.0
2018-Feb-12 12:58N 53°45' W 000°16'0 0.0
2018-Feb-12 12:28N 53°45' W 000°16'0 0.0
2018-Feb-12 12:00N 53°45' W 000°16'0 0.0
2018-Feb-12 11:30N 53°45' W 000°16'0 0.0
2018-Feb-12 11:00N 53°45' W 000°16'0 0.0
2018-Feb-12 10:30N 53°45' W 000°16'0 0.0
2018-Feb-12 10:00N 53°45' W 000°16'0 0.0
2018-Feb-12 09:29N 53°45' W 000°16'0 0.0
2018-Feb-12 08:59N 53°45' W 000°16'0 0.1
2018-Feb-12 08:30N 53°45' W 000°16'0 0.3
2018-Feb-12 08:00N 53°44' W 000°16'0 0.3
2018-Feb-12 07:30N 53°44' W 000°16'5 9.4
2018-Feb-12 07:01N 53°40' W 000°13'5 9.9
2018-Feb-12 06:30N 53°37' W 000°06'613.0
2018-Feb-12 06:00N 53°35' E 000°04'714.6
2018-Feb-12 05:30N 53°33' E 000°16'2915.4
2018-Feb-12 03:36N 53°20' E 001°00'114.3
2018-Feb-12 03:30N 53°19' E 001°02'714.9
2018-Feb-12 03:00N 53°13' E 001°10'815.0
2018-Feb-12 02:30N 53°08' E 001°18'815.6
2018-Feb-12 02:00N 53°02' E 001°27'816.2
2018-Feb-12 01:31N 52°56' E 001°36'917.2
2018-Feb-12 01:00N 52°50' E 001°45'917.6
2018-Feb-12 00:30N 52°43' E 001°56'5815.6
2018-Feb-11 20:48N 51°51' E 002°34'514.1
2018-Feb-11 20:27N 51°46' E 002°38'714.0
2018-Feb-11 19:57N 51°40' E 002°43'613.7
2018-Feb-11 19:30N 51°35' E 002°48'714.0
2018-Feb-11 19:00N 51°30' E 002°55'713.9
2018-Feb-11 18:31N 51°25' E 003°03'713.3
2018-Feb-11 18:00N 51°21' E 003°12'1 1.8
2018-Feb-11 17:29N 51°20' E 003°11'0 0.0
2018-Feb-11 16:58N 51°20' E 003°11'0 0.0
2018-Feb-11 16:28N 51°20' E 003°11'0 0.0
2018-Feb-11 15:58N 51°20' E 003°11'0 0.0
2018-Feb-11 15:28N 51°20' E 003°11'0 0.0
2018-Feb-11 14:58N 51°20' E 003°11'0 0.0
2018-Feb-11 14:30N 51°20' E 003°11'0 0.0
2018-Feb-11 14:00N 51°20' E 003°11'0 0.0
2018-Feb-11 13:30N 51°20' E 003°11'0 0.0
2018-Feb-11 13:00N 51°20' E 003°11'0 0.0
2018-Feb-11 12:29N 51°20' E 003°11'0 0.0
2018-Feb-11 11:59N 51°20' E 003°11'0 0.0
2018-Feb-11 11:29N 51°20' E 003°11'0 0.0
2018-Feb-11 10:59N 51°20' E 003°11'0 0.0
2018-Feb-11 10:29N 51°20' E 003°11'0 0.0
2018-Feb-11 09:58N 51°20' E 003°11'0 0.0
2018-Feb-11 09:29N 51°20' E 003°11'0 0.0
2018-Feb-11 08:58N 51°20' E 003°11'0 0.0
2018-Feb-11 08:30N 51°20' E 003°11'1 2.4
2018-Feb-11 08:00N 51°21' E 003°12'815.8
2018-Feb-11 07:30N 51°25' E 003°01'815.6
2018-Feb-11 07:00N 51°29' E 002°50'714.6
2018-Feb-11 06:30N 51°35' E 002°42'814.4
2018-Feb-11 05:58N 51°42' E 002°38'714.7
2018-Feb-11 05:30N 51°49' E 002°36'5115.0
2018-Feb-11 02:08N 52°35' E 002°02'214.9
2018-Feb-11 01:59N 52°37' E 002°01'714.9
2018-Feb-11 01:30N 52°43' E 001°55'815.6
2018-Feb-11 01:00N 52°48' E 001°46'816.3
2018-Feb-11 00:30N 52°53' E 001°35'816.2
2018-Feb-11 00:00N 52°57' E 001°23'816.1
2018-Feb-10 23:30N 53°01' E 001°11'4115.5
2018-Feb-10 20:50N 53°29' E 000°21'515.2
2018-Feb-10 20:30N 53°32' E 000°14'715.3
2018-Feb-10 20:00N 53°35' E 000°03'815.2
2018-Feb-10 19:30N 53°38' W 000°09'713.3
2018-Feb-10 19:00N 53°44' W 000°15'1 2.2
2018-Feb-10 18:30N 53°44' W 000°16'0 0.2
2018-Feb-10 18:00N 53°45' W 000°16'0 0.0
2018-Feb-10 17:29N 53°45' W 000°16'0 0.0
2018-Feb-10 16:59N 53°45' W 000°16'0 0.0
2018-Feb-10 16:29N 53°45' W 000°16'0 0.0
2018-Feb-10 15:59N 53°45' W 000°16'0 0.0
2018-Feb-10 15:29N 53°45' W 000°16'  

Dump ship's entire track history